createdAt,value
2018-08-25T00:01:08.461Z,17.47
2018-08-25T00:03:36.522Z,8.17
2018-08-25T00:06:04.873Z,7.43
2018-08-25T00:08:32.985Z,11.20
2018-08-25T00:11:01.057Z,11.00
2018-08-25T00:13:29.233Z,7.67
2018-08-25T00:15:57.385Z,6.97
2018-08-25T00:18:25.471Z,7.07
2018-08-25T00:20:53.557Z,8.53
2018-08-25T00:23:21.757Z,5.40
2018-08-25T00:25:49.858Z,6.50
2018-08-25T00:28:17.950Z,7.97
2018-08-25T00:30:51.303Z,13.07
2018-08-25T00:33:19.585Z,12.77
2018-08-25T00:35:47.687Z,7.83
2018-08-25T00:38:16.152Z,8.13
2018-08-25T00:40:44.253Z,6.67
2018-08-25T00:43:12.304Z,13.07
2018-08-25T00:45:40.372Z,7.63
2018-08-25T00:48:08.521Z,8.53
2018-08-25T00:50:36.568Z,11.60
2018-08-25T00:53:04.662Z,8.00
2018-08-25T00:55:32.795Z,6.10
2018-08-25T00:58:00.972Z,7.77
2018-08-25T01:00:29.038Z,7.07
2018-08-25T01:02:57.084Z,8.17
2018-08-25T01:05:25.293Z,8.00
2018-08-25T01:07:53.393Z,6.33
2018-08-25T01:10:21.467Z,9.43
2018-08-25T01:12:49.626Z,9.10
2018-08-25T01:15:17.697Z,10.57
2018-08-25T01:17:45.764Z,8.23
2018-08-25T01:20:13.864Z,7.10
2018-08-25T01:22:41.978Z,9.73
2018-08-25T01:25:10.181Z,7.60
2018-08-25T01:27:38.944Z,8.50
2018-08-25T01:30:07.024Z,10.23
2018-08-25T01:32:35.108Z,7.27
2018-08-25T01:35:03.182Z,7.57
2018-08-25T01:37:31.237Z,8.17
2018-08-25T01:39:59.281Z,13.67
2018-08-25T01:42:27.349Z,9.40
2018-08-25T01:44:55.642Z,9.47
2018-08-25T01:47:23.721Z,8.87
2018-08-25T01:49:51.806Z,9.23
2018-08-25T01:52:19.890Z,9.87
2018-08-25T01:54:48.154Z,9.33
2018-08-25T01:57:16.249Z,12.80
2018-08-25T01:59:44.348Z,9.20
2018-08-25T02:02:12.392Z,9.30
2018-08-25T02:04:40.579Z,8.97
2018-08-25T02:07:08.842Z,9.87
2018-08-25T02:09:37.115Z,10.00
2018-08-25T02:12:05.264Z,12.47
2018-08-25T02:14:33.333Z,11.00
2018-08-25T02:17:01.567Z,10.80
2018-08-25T02:19:29.633Z,10.27
2018-08-25T02:21:57.705Z,10.80
2018-08-25T02:24:25.768Z,12.07
2018-08-25T02:26:53.820Z,10.20
2018-08-25T02:29:21.897Z,12.10
2018-08-25T02:31:49.959Z,10.73
2018-08-25T02:34:18.016Z,10.90
2018-08-25T02:36:46.129Z,11.43
2018-08-25T02:39:14.361Z,10.47
2018-08-25T02:41:43.258Z,10.13
2018-08-25T02:44:11.360Z,10.77
2018-08-25T02:46:39.420Z,17.83
2018-08-25T02:49:07.512Z,12.37
2018-08-25T02:51:35.692Z,12.73
2018-08-25T02:54:03.758Z,14.10
2018-08-25T02:56:31.800Z,9.13
2018-08-25T02:58:59.864Z,11.10
2018-08-25T03:01:27.980Z,10.20
2018-08-25T03:03:56.033Z,10.10
2018-08-25T03:06:24.200Z,12.13
2018-08-25T03:08:52.330Z,10.93
2018-08-25T03:11:20.470Z,9.60
2018-08-25T03:13:48.849Z,9.03
2018-08-25T03:16:17.015Z,9.93
2018-08-25T03:18:45.085Z,12.97
2018-08-25T03:21:13.166Z,13.60
2018-08-25T03:23:41.280Z,10.27
2018-08-25T03:26:09.361Z,11.53
2018-08-25T03:28:37.603Z,10.53
2018-08-25T03:31:05.793Z,14.27
2018-08-25T03:33:34.056Z,10.47
2018-08-25T03:36:02.110Z,10.23
2018-08-25T03:38:30.183Z,10.10
2018-08-25T03:40:58.287Z,12.60
2018-08-25T03:43:26.457Z,11.43
2018-08-25T03:45:54.540Z,9.83
2018-08-25T03:48:22.660Z,9.10
2018-08-25T03:50:50.776Z,11.43
2018-08-25T03:53:18.820Z,10.80
2018-08-25T03:55:46.868Z,12.97
2018-08-25T03:58:15.005Z,12.97
2018-08-25T04:00:43.040Z,11.23
2018-08-25T04:03:11.219Z,13.37
2018-08-25T04:05:39.259Z,12.83
2018-08-25T04:08:07.385Z,11.50
2018-08-25T04:10:35.444Z,11.23
2018-08-25T04:13:03.562Z,10.97
2018-08-25T04:15:31.662Z,9.50
2018-08-25T04:17:59.812Z,9.80
2018-08-25T04:20:27.855Z,9.47
2018-08-25T04:22:55.890Z,8.57
2018-08-25T04:25:23.970Z,9.10
2018-08-25T04:27:52.065Z,9.07
2018-08-25T04:30:20.128Z,9.47
2018-08-25T04:32:48.224Z,12.20
2018-08-25T04:35:16.401Z,12.20
2018-08-25T04:37:44.626Z,10.53
2018-08-25T04:40:12.745Z,10.97
2018-08-25T04:42:40.797Z,8.37
2018-08-25T04:45:08.897Z,9.10
2018-08-25T04:47:36.948Z,12.03
2018-08-25T04:50:05.050Z,9.53
2018-08-25T04:52:33.158Z,10.23
2018-08-25T04:55:01.305Z,10.50
2018-08-25T04:57:29.596Z,12.80
2018-08-25T04:59:57.689Z,9.80
2018-08-25T05:02:25.822Z,12.20
2018-08-25T05:04:53.910Z,10.87
2018-08-25T05:07:22.071Z,7.20
2018-08-25T05:09:50.233Z,10.23
2018-08-25T05:12:18.308Z,10.90
2018-08-25T05:14:46.472Z,6.83
2018-08-25T05:17:14.527Z,7.03
2018-08-25T05:19:42.646Z,6.83
2018-08-25T05:22:10.777Z,8.50
2018-08-25T05:24:38.861Z,7.37
2018-08-25T05:27:06.933Z,7.13
2018-08-25T05:29:35.096Z,6.73
2018-08-25T05:32:03.173Z,15.53
2018-08-25T05:34:31.248Z,9.30
2018-08-25T05:36:59.328Z,8.00
2018-08-25T05:39:27.523Z,12.93
2018-08-25T05:41:57.244Z,6.40
2018-08-25T05:44:25.305Z,10.70
2018-08-25T05:46:53.352Z,9.20
2018-08-25T05:49:21.457Z,7.03
2018-08-25T05:51:49.497Z,10.47
2018-08-25T05:54:17.568Z,8.53
2018-08-25T05:56:46.061Z,6.33
2018-08-25T05:59:14.147Z,7.57
2018-08-25T06:01:42.197Z,7.53
2018-08-25T06:04:10.278Z,12.20
2018-08-25T06:06:38.413Z,6.30
2018-08-25T06:09:07.780Z,7.63
2018-08-25T06:11:36.126Z,6.73
2018-08-25T06:14:04.668Z,12.23
2018-08-25T06:16:32.719Z,7.97
2018-08-25T06:19:00.787Z,9.00
2018-08-25T06:21:29.185Z,10.70
2018-08-25T06:23:57.340Z,8.23
2018-08-25T06:26:25.525Z,8.77
2018-08-25T06:28:53.577Z,7.20
2018-08-25T06:31:21.920Z,9.07
2018-08-25T06:33:50.045Z,11.17
2018-08-25T06:36:19.961Z,6.10
2018-08-25T06:38:48.007Z,7.07
2018-08-25T06:41:16.076Z,9.57
2018-08-25T06:43:44.174Z,6.37
2018-08-25T06:46:12.408Z,10.73
2018-08-25T06:48:41.149Z,10.63
2018-08-25T06:51:09.215Z,5.53
2018-08-25T06:53:37.753Z,6.57
2018-08-25T06:56:05.865Z,7.97
2018-08-25T06:58:33.921Z,6.80
2018-08-25T07:01:02.093Z,8.80
2018-08-25T07:03:30.163Z,12.03
2018-08-25T07:05:58.317Z,11.50
2018-08-25T07:08:26.653Z,5.20
2018-08-25T07:10:54.792Z,6.07
2018-08-25T07:13:22.896Z,8.00
2018-08-25T07:15:51.073Z,6.57
2018-08-25T07:18:19.153Z,6.87
2018-08-25T07:20:47.295Z,7.70
2018-08-25T07:23:15.529Z,7.10
2018-08-25T07:25:43.822Z,7.13
2018-08-25T07:28:12.159Z,6.70
2018-08-25T07:30:40.220Z,12.00
2018-08-25T07:33:08.309Z,8.07
2018-08-25T07:35:36.377Z,5.13
2018-08-25T07:38:04.457Z,14.50
2018-08-25T07:40:32.522Z,7.40
2018-08-25T07:43:00.578Z,13.20
2018-08-25T07:45:28.857Z,6.27
2018-08-25T07:47:56.917Z,7.33
2018-08-25T07:50:25.125Z,5.80
2018-08-25T07:52:53.200Z,5.70
2018-08-25T07:55:21.384Z,6.90
2018-08-25T07:57:49.432Z,6.87
2018-08-25T08:00:17.772Z,10.03
2018-08-25T08:02:45.836Z,6.77
2018-08-25T08:05:13.962Z,9.67
2018-08-25T08:07:42.293Z,7.60
2018-08-25T08:10:11.296Z,8.77
2018-08-25T08:12:39.397Z,7.13
2018-08-25T08:15:07.497Z,5.80
2018-08-25T08:17:35.556Z,12.23
2018-08-25T08:20:03.672Z,5.00
2018-08-25T08:22:31.788Z,5.13
2018-08-25T08:24:59.988Z,9.60
2018-08-25T08:27:28.252Z,5.43
2018-08-25T08:29:56.418Z,6.63
2018-08-25T08:32:24.501Z,7.43
2018-08-25T08:34:52.587Z,7.90
2018-08-25T08:37:20.905Z,6.00
2018-08-25T08:39:49.028Z,6.13
2018-08-25T08:42:17.170Z,7.13
2018-08-25T08:44:45.410Z,4.60
2018-08-25T08:47:13.688Z,7.50
2018-08-25T08:49:46.817Z,5.67
2018-08-25T08:52:09.905Z,3.20
2018-08-25T08:54:38.239Z,7.23
2018-08-25T08:57:06.296Z,8.03
2018-08-25T08:59:34.402Z,6.17
2018-08-25T09:02:02.469Z,4.07
2018-08-25T09:04:30.561Z,7.97
2018-08-25T09:06:58.645Z,5.97
2018-08-25T09:09:26.732Z,5.13
2018-08-25T09:11:54.823Z,4.33
2018-08-25T09:14:23.087Z,2.53
2018-08-25T09:16:51.162Z,3.00
2018-08-25T09:19:19.247Z,3.90
2018-08-25T09:21:47.606Z,3.90
2018-08-25T09:24:15.644Z,8.27
2018-08-25T09:26:43.759Z,2.27
2018-08-25T09:29:11.827Z,3.60
2018-08-25T09:31:39.893Z,3.00
2018-08-25T09:34:07.969Z,4.03
2018-08-25T09:36:36.244Z,3.53
2018-08-25T09:39:06.538Z,4.60
2018-08-25T09:41:34.720Z,3.37
2018-08-25T09:44:03.032Z,3.37
2018-08-25T09:46:31.100Z,4.60
2018-08-25T09:48:59.256Z,2.90
2018-08-25T09:51:27.349Z,2.53
2018-08-25T09:53:55.418Z,5.93
2018-08-25T09:56:23.492Z,3.03
2018-08-25T09:58:52.083Z,5.90
2018-08-25T10:01:26.053Z,3.73
2018-08-25T10:03:54.227Z,4.30
2018-08-25T10:06:22.288Z,6.60
2018-08-25T10:08:50.352Z,2.50
2018-08-25T10:11:18.480Z,4.93
2018-08-25T10:13:46.560Z,5.40
2018-08-25T10:16:14.632Z,2.40
2018-08-25T10:18:42.822Z,3.07
2018-08-25T10:21:10.969Z,3.90
2018-08-25T10:23:39.192Z,3.43
2018-08-25T10:26:07.424Z,4.30
2018-08-25T10:28:35.472Z,3.83
2018-08-25T10:31:03.908Z,6.03
2018-08-25T10:33:32.240Z,4.77
2018-08-25T10:36:00.313Z,3.40
2018-08-25T10:38:28.462Z,3.70
2018-08-25T10:40:56.562Z,4.03
2018-08-25T10:43:24.643Z,3.43
2018-08-25T10:45:52.841Z,4.30
2018-08-25T10:48:21.025Z,2.97
2018-08-25T10:50:49.321Z,3.23
2018-08-25T10:53:17.461Z,3.27
2018-08-25T10:55:45.645Z,3.47
2018-08-25T10:58:13.758Z,1.97
2018-08-25T11:00:42.006Z,4.67
2018-08-25T11:03:10.160Z,5.17
2018-08-25T11:05:38.386Z,5.00
2018-08-25T11:08:06.601Z,6.37
2018-08-25T11:10:34.895Z,5.10
2018-08-25T11:13:03.170Z,3.83
2018-08-25T11:15:31.267Z,4.73
2018-08-25T11:17:59.409Z,2.43
2018-08-25T11:20:27.591Z,3.13
2018-08-25T11:22:55.774Z,4.47
2018-08-25T11:25:23.836Z,3.47
2018-08-25T11:27:52.013Z,4.00
2018-08-25T11:30:20.214Z,4.63
2018-08-25T11:32:48.689Z,5.33
2018-08-25T11:35:16.782Z,4.37
2018-08-25T11:37:44.992Z,2.77
2018-08-25T11:40:13.112Z,3.90
2018-08-25T11:42:41.225Z,3.77
2018-08-25T11:45:09.637Z,5.23
2018-08-25T11:47:37.687Z,3.43
2018-08-25T11:50:05.849Z,5.90
2018-08-25T11:52:33.882Z,5.07
2018-08-25T11:55:01.974Z,3.87
2018-08-25T11:57:30.335Z,3.47
2018-08-25T11:59:58.476Z,3.80
2018-08-25T12:02:27.801Z,4.93
2018-08-25T12:04:54.960Z,2.60
2018-08-25T12:07:23.030Z,4.13
2018-08-25T12:09:51.107Z,4.37
2018-08-25T12:12:19.313Z,2.70
2018-08-25T12:14:47.512Z,3.93
2018-08-25T12:17:15.636Z,2.20
2018-08-25T12:19:43.672Z,4.83
2018-08-25T12:22:12.085Z,4.70
2018-08-25T12:24:40.128Z,2.10
2018-08-25T12:27:08.201Z,2.03
2018-08-25T12:29:36.261Z,3.00
2018-08-25T12:32:04.380Z,3.77
2018-08-25T12:34:32.439Z,4.30
2018-08-25T12:37:00.669Z,7.40
2018-08-25T12:39:28.897Z,2.57
2018-08-25T12:41:57.100Z,2.10
2018-08-25T12:44:25.203Z,8.17
2018-08-25T12:46:53.263Z,2.57
2018-08-25T12:49:21.341Z,2.67
2018-08-25T12:51:49.535Z,2.33
2018-08-25T12:54:17.734Z,3.43
2018-08-25T12:56:45.936Z,3.20
2018-08-25T12:59:14.125Z,4.67
2018-08-25T13:01:42.485Z,2.03
2018-08-25T13:04:10.762Z,1.60
2018-08-25T13:06:38.952Z,1.83
2018-08-25T13:09:07.763Z,3.00
2018-08-25T13:11:36.033Z,2.13
2018-08-25T13:14:04.173Z,3.00
2018-08-25T13:16:32.277Z,1.00
2018-08-25T13:19:00.364Z,1.27
2018-08-25T13:21:29.077Z,1.40
2018-08-25T13:23:57.184Z,1.13
2018-08-25T13:26:25.556Z,1.87
2018-08-25T13:28:53.819Z,1.20
2018-08-25T13:31:21.970Z,1.20
2018-08-25T13:33:50.315Z,1.10
2018-08-25T13:36:18.532Z,1.27
2018-08-25T13:38:46.670Z,2.20
2018-08-25T13:41:14.717Z,1.53
2018-08-25T13:43:42.810Z,1.30
2018-08-25T13:46:11.112Z,2.43
2018-08-25T13:48:39.422Z,1.10
2018-08-25T13:51:07.563Z,1.57
2018-08-25T13:53:35.768Z,1.00
2018-08-25T13:56:04.230Z,1.63
2018-08-25T13:58:32.380Z,1.30
2018-08-25T14:01:00.430Z,2.10
2018-08-25T14:03:28.484Z,1.30
2018-08-25T14:05:56.721Z,1.57
2018-08-25T14:08:25.369Z,1.70
2018-08-25T14:10:53.392Z,1.17
2018-08-25T14:13:21.589Z,1.00
2018-08-25T14:15:49.675Z,1.03
2018-08-25T14:18:18.270Z,1.40
2018-08-25T14:20:46.444Z,1.20
2018-08-25T14:23:14.529Z,1.37
2018-08-25T14:25:42.586Z,1.47
2018-08-25T14:28:10.838Z,1.90
2018-08-25T14:30:38.919Z,1.27
2018-08-25T14:33:07.033Z,2.17
2018-08-25T14:35:35.090Z,1.60
2018-08-25T14:38:03.241Z,5.70
2018-08-25T14:40:31.400Z,1.97
2018-08-25T14:42:59.461Z,1.17
2018-08-25T14:45:27.541Z,1.00
2018-08-25T14:47:55.732Z,0.90
2018-08-25T14:50:23.815Z,0.80
2018-08-25T14:52:52.009Z,1.00
2018-08-25T14:55:20.086Z,1.23
2018-08-25T14:57:48.199Z,1.07
2018-08-25T15:00:16.334Z,1.90
2018-08-25T15:02:44.708Z,0.93
2018-08-25T15:05:12.796Z,1.20
2018-08-25T15:07:40.986Z,2.03
2018-08-25T15:10:09.417Z,0.70
2018-08-25T15:12:37.570Z,0.73
2018-08-25T15:15:05.939Z,1.67
2018-08-25T15:17:34.126Z,0.77
2018-08-25T15:20:02.222Z,1.00
2018-08-25T15:22:30.296Z,1.27
2018-08-25T15:24:58.361Z,0.73
2018-08-25T15:27:26.688Z,1.20
2018-08-25T15:29:55.001Z,1.17
2018-08-25T15:32:23.059Z,1.13
2018-08-25T15:34:51.249Z,1.50
2018-08-25T15:37:19.300Z,2.03
2018-08-25T15:39:47.461Z,0.80
2018-08-25T15:42:15.561Z,0.90
2018-08-25T15:44:43.696Z,1.13
2018-08-25T15:47:11.770Z,1.00
2018-08-25T15:49:39.879Z,1.00
2018-08-25T15:52:08.582Z,1.07
2018-08-25T15:54:36.844Z,1.13
2018-08-25T15:57:04.973Z,1.13
2018-08-25T15:59:33.104Z,1.20
2018-08-25T16:02:01.213Z,1.53
2018-08-25T16:04:29.273Z,1.40
2018-08-25T16:06:57.325Z,1.50
2018-08-25T16:09:25.411Z,2.27
2018-08-25T16:11:53.491Z,1.53
2018-08-25T16:14:21.725Z,1.70
2018-08-25T16:16:49.822Z,2.40
2018-08-25T16:19:17.962Z,1.20
2018-08-25T16:21:46.146Z,1.67
2018-08-25T16:24:14.202Z,1.57
2018-08-25T16:26:42.356Z,2.20
2018-08-25T16:29:10.501Z,2.50
2018-08-25T16:31:38.550Z,2.90
2018-08-25T16:34:07.217Z,2.03
2018-08-25T16:36:35.342Z,1.90
2018-08-25T16:39:03.731Z,1.43
2018-08-25T16:41:31.797Z,1.50
2018-08-25T16:44:00.033Z,1.37
2018-08-25T16:46:28.069Z,1.10
2018-08-25T16:48:56.203Z,1.63
2018-08-25T16:51:24.287Z,1.87
2018-08-25T16:53:52.391Z,1.43
2018-08-25T16:56:20.587Z,2.03
2018-08-25T16:58:48.730Z,1.40
2018-08-25T17:01:16.836Z,1.63
2018-08-25T17:03:44.988Z,1.40
2018-08-25T17:06:13.188Z,1.47
2018-08-25T17:08:41.262Z,2.07
2018-08-25T17:11:09.516Z,2.37
2018-08-25T17:13:37.672Z,4.83
2018-08-25T17:16:05.883Z,1.60
2018-08-25T17:18:34.140Z,1.43
2018-08-25T17:21:02.253Z,1.50
2018-08-25T17:23:30.521Z,1.60
2018-08-25T17:25:58.707Z,1.40
2018-08-25T17:28:27.025Z,1.53
2018-08-25T17:30:55.187Z,2.17
2018-08-25T17:33:23.547Z,1.80
2018-08-25T17:35:51.594Z,3.03
2018-08-25T17:38:19.745Z,2.60
2018-08-25T17:40:47.930Z,2.50
2018-08-25T17:43:16.103Z,3.77
2018-08-25T17:45:44.332Z,1.73
2018-08-25T17:48:12.622Z,2.13
2018-08-25T17:50:40.737Z,1.60
2018-08-25T17:53:08.777Z,2.03
2018-08-25T17:55:36.897Z,4.53
2018-08-25T17:58:04.999Z,4.70
2018-08-25T18:00:33.117Z,2.00
2018-08-25T18:03:01.205Z,1.90
2018-08-25T18:05:29.481Z,3.13
2018-08-25T18:07:57.625Z,1.63
2018-08-25T18:10:26.092Z,2.43
2018-08-25T18:12:54.174Z,1.77
2018-08-25T18:15:22.268Z,1.60
2018-08-25T18:17:50.388Z,1.70
2018-08-25T18:20:18.787Z,2.30
2018-08-25T18:22:46.865Z,2.60
2018-08-25T18:25:15.341Z,3.17
2018-08-25T18:27:43.548Z,1.87
2018-08-25T18:30:12.221Z,1.53
2018-08-25T18:32:40.329Z,2.10
2018-08-25T18:35:08.757Z,2.20
2018-08-25T18:37:37.344Z,2.80
2018-08-25T18:40:05.819Z,1.93
2018-08-25T18:42:34.212Z,2.10
2018-08-25T18:45:02.786Z,2.00
2018-08-25T18:47:31.266Z,1.60
2018-08-25T18:49:59.751Z,4.17
2018-08-25T18:52:28.333Z,2.50
2018-08-25T18:54:56.527Z,2.53
2018-08-25T18:57:24.719Z,2.97
2018-08-25T18:59:53.166Z,4.03
2018-08-25T19:02:21.304Z,1.90
2018-08-25T19:04:50.028Z,2.53
2018-08-25T19:07:18.517Z,3.53
2018-08-25T19:09:46.994Z,2.50
2018-08-25T19:12:15.478Z,1.90
2018-08-25T19:14:43.611Z,6.63
2018-08-25T19:17:11.779Z,2.13
2018-08-25T19:19:39.983Z,1.77
2018-08-25T19:22:08.495Z,2.40
2018-08-25T19:24:36.969Z,6.23
2018-08-25T19:27:05.434Z,9.90
2018-08-25T19:29:33.782Z,2.73
2018-08-25T19:32:02.211Z,2.40
2018-08-25T19:34:30.803Z,2.10
2018-08-25T19:36:59.483Z,1.60
2018-08-25T19:39:27.965Z,1.47
2018-08-25T19:41:56.427Z,3.43
2018-08-25T19:44:24.927Z,2.77
2018-08-25T19:46:53.557Z,2.23
2018-08-25T19:49:22.078Z,1.70
2018-08-25T19:51:50.687Z,2.10
2018-08-25T19:54:19.169Z,3.57
2018-08-25T19:56:47.548Z,2.00
2018-08-25T19:59:15.807Z,2.27
2018-08-25T20:01:44.309Z,2.70
2018-08-25T20:04:12.794Z,2.77
2018-08-25T20:06:41.275Z,2.90
2018-08-25T20:09:09.859Z,4.10
2018-08-25T20:11:38.443Z,3.50
2018-08-25T20:14:06.856Z,3.20
2018-08-25T20:16:34.949Z,3.73
2018-08-25T20:19:03.412Z,2.40
2018-08-25T20:21:31.648Z,1.87
2018-08-25T20:24:00.141Z,3.00
2018-08-25T20:26:28.624Z,3.10
2018-08-25T20:28:56.764Z,2.80
2018-08-25T20:31:25.121Z,4.00
2018-08-25T20:33:53.534Z,2.20
2018-08-25T20:36:21.662Z,2.70
2018-08-25T20:38:49.741Z,2.27
2018-08-25T20:41:17.836Z,2.97
2018-08-25T20:43:46.070Z,2.80
2018-08-25T20:46:14.162Z,2.90
2018-08-25T20:48:42.348Z,3.03
2018-08-25T20:51:10.577Z,2.70
2018-08-25T20:53:38.712Z,3.00
2018-08-25T20:56:06.801Z,3.20
2018-08-25T20:58:35.001Z,3.27
2018-08-25T21:01:03.474Z,2.53
2018-08-25T21:03:31.574Z,2.70
2018-08-25T21:05:59.681Z,3.20
2018-08-25T21:08:27.843Z,3.20
2018-08-25T21:10:55.910Z,5.13
2018-08-25T21:13:24.018Z,3.60
2018-08-25T21:15:52.191Z,2.80
2018-08-25T21:18:20.449Z,2.97
2018-08-25T21:20:48.537Z,2.60
2018-08-25T21:23:16.738Z,2.60
2018-08-25T21:25:44.829Z,3.00
2018-08-25T21:28:12.984Z,3.53
2018-08-25T21:30:41.085Z,10.40
2018-08-25T21:33:09.397Z,5.13
2018-08-25T21:35:37.548Z,3.03
2018-08-25T21:38:05.671Z,2.40
2018-08-25T21:40:33.762Z,2.87
2018-08-25T21:43:01.840Z,3.20
2018-08-25T21:45:29.898Z,2.73
2018-08-25T21:47:57.964Z,3.20
2018-08-25T21:50:26.053Z,3.70
2018-08-25T21:52:54.140Z,4.13
2018-08-25T21:55:22.322Z,5.07
2018-08-25T21:57:50.398Z,2.80
2018-08-25T22:00:18.599Z,2.97
2018-08-25T22:02:46.689Z,2.60
2018-08-25T22:05:15.045Z,2.93
2018-08-25T22:07:43.112Z,3.40
2018-08-25T22:10:11.222Z,3.20
2018-08-25T22:12:39.366Z,3.03
2018-08-25T22:15:07.930Z,3.30
2018-08-25T22:17:36.789Z,4.13
2018-08-25T22:20:05.800Z,3.40
2018-08-25T22:22:33.897Z,3.93
2018-08-25T22:25:02.024Z,3.93
2018-08-25T22:27:30.325Z,3.80
2018-08-25T22:29:58.413Z,3.63
2018-08-25T22:32:26.534Z,4.37
2018-08-25T22:34:54.645Z,8.57
2018-08-25T22:37:22.746Z,4.40
2018-08-25T22:39:50.925Z,3.80
2018-08-25T22:42:18.980Z,4.00
2018-08-25T22:44:47.146Z,3.80
2018-08-25T22:47:15.193Z,3.03
2018-08-25T22:49:43.349Z,3.50
2018-08-25T22:52:11.424Z,3.50
2018-08-25T22:54:39.539Z,3.23
2018-08-25T22:57:07.609Z,4.13
2018-08-25T22:59:35.660Z,3.53
2018-08-25T23:02:03.801Z,3.40
2018-08-25T23:04:31.860Z,3.73
2018-08-25T23:06:59.933Z,4.63
2018-08-25T23:09:28.041Z,5.20
2018-08-25T23:11:56.124Z,3.87
2018-08-25T23:14:24.192Z,4.20
2018-08-25T23:16:52.241Z,4.47
2018-08-25T23:19:20.325Z,3.50
2018-08-25T23:21:48.384Z,4.20
2018-08-25T23:24:16.588Z,3.33
2018-08-25T23:26:44.669Z,3.80
2018-08-25T23:29:12.854Z,3.70
2018-08-25T23:31:41.569Z,3.40
2018-08-25T23:34:09.708Z,3.67
2018-08-25T23:36:37.788Z,4.23
2018-08-25T23:39:06.910Z,2.90
2018-08-25T23:41:35.060Z,3.43
2018-08-25T23:44:03.117Z,3.83
2018-08-25T23:46:31.181Z,3.33
2018-08-25T23:48:59.320Z,3.27
2018-08-25T23:51:27.396Z,3.83
2018-08-25T23:53:55.600Z,3.40
2018-08-25T23:56:23.737Z,3.60
2018-08-25T23:58:51.837Z,3.73
